Eagle Point Bay, Illinois
Current Conditions -  °F | °C
As of 6:15 PM on Friday 28 Nov 2014 (Local Time) from KMWA Reporting Station
Clear Clear  
Wind Chill: 37°   Ceiling: Unl
Heat Index: 43°   Visibility: 10mi
Dew Point: 30°   Wind: 12mph
Humidity: 61%   Direction: 190°S
Pressure: 30.04"   Gusts: 18mph
Location:  37.565°N, 88.982°W
Report Text: KMWA 290015Z AUTO 19010G16KT 10SM CLR 06/M01 A3004 RMK AO2
Loading
Personal Weather Stations






























Interactive Weather Map New forecast layout! Learn more

10-Day Weather Forecast

Advertisements
Track Severe Weather on mobile